Salina, KS (67401)

12:34 PM CDT on July 28, 2016 (GMT -0500)
Central Salina | | Change Station

Elev 1243 ft 38.82 °N, 97.62 °W | Updated 6 seconds ago

Clear
Clear
92.7 °F
Feels Like 99 °F
N
1.6
Wind Variable Wind from ESE
Gusts 3.1 mph

Today
High -- | Low -- °F
--% Chance of Precip.
Yesterday
High -- | Low -- °F
Precip. -- in
Pressure 29.94 in
Visibility 10.0 miles
Clouds Clear
Heat Index 99 °F
Dew Point 70 °F
Humidity 48%
Rainfall 0.08 in
Snow Depth Not available.
6:28 AM 8:44 PM
Waning Crescent, 30% visible
METAR KSLN 281653Z 05011KT 10SM CLR 32/20 A2999 RMK AO2 SLP139 T03170200
Pressure 29.94 in
Visibility 10.0 miles
Clouds Clear
Heat Index 99 °F
Dew Point 70 °F
Humidity 48%
Rainfall 0.08 in
Snow Depth Not available.
6:28 AM 8:44 PM
Waning Crescent, 30% visible
METAR KSLN 281653Z 05011KT 10SM CLR 32/20 A2999 RMK AO2 SLP139 T03170200

10-Day Weather Forecast

Almanac

Astronomy

Jul. 28, 2016 Rise Set
Actual Time
Civil Twilight
Nautical Twilight
Astronomical Twilight
Moon
Length of Visible Light
Length of Day
Tomorrow will be .
, % of the Moon is Illuminated

Today's Extremes

State Highs State Lows

Community

WunderPhotos

Upload Photos

1,928,163 photos uploaded!

WunderBlog® & News

Nearby

Air Quality

  Air Quality AQ Index Pollutant
Not available.

Snow Depth

Station Depth Elevation

Earthquake Activity

City Distance Mag. Time & Date
Minimum magnitude displayed is 2.5.

Coastal Water Temperatures

Place Temperature

Stations

Nearby Weather Stations

Station Location Temp. Windchill Dew Point Humidity Wind Precip. Elev Updated Type
                   

Watches & Warnings

There are currently no watches in effect.